Pagrindinis puslapis
METAR-TAF:

METAR-TAF

Oro uostai :

Puant a Pitras, Gvadelupa

platuma: 16-16N, ilguma: 061-31W, Aukštis: 11 m

Dabartinis oras

Ataskaita buvo paskelbta 38 minutes, ne 05:30 UTC
Vėjas 1 kt iš Rytų/Pietryčių
Temperatūra 21°C
Drėgmė 94%
Slėgis 1015 hPa
Matomumas 10 km arba daugiau
nėra debesų žemiau 1500 m ir nėra kamuolinių lietaus debesų

METAR: TFFR 230530Z AUTO 12001KT CAVOK 21/20 Q1015

Laikas: 02:08 (06:08 UTC)

Prognozė

Ataskaita buvo paskelbta 25 valandos ir 8 minutes, ne 05:00 UTC
Prognozė galioja nuo 22 metu 06 UTC su 23 metu 06 UTC
Vėjas 5 kt iš Rytų
Matomumas 10 km arba daugiau
Mažai debesys ne aukštis 3500 ft
Tikimybė 30% :
Laikinai
nuo 22 metu 06 UTC su 22 metu 24 UTC
Matomumas: 4000 m
Su prošvaistėmis ne aukštis 2000 ft, aukštai iškilę kamuoliniai debesys.
lietus

TAF: TFFR 220500Z 2206/2306 08005KT 9999 FEW035 PROB30 TEMPO 2206/2224 4000 SHRA BKN020TCU

Orai ataskaitas ir orų prognozės (METAR, TAF).

turimą stotys yra geltonos ir raudonos taškus žemėlapyje.

Perkelti pele per norėdami pamatyti stoties vardą.

Tada spustelėkite, norėdami matyti oro stebėjimo ir prognozės.

Norėdami pakeisti žemėlapį: spustelėkite ant žalios mygtukų su juodo kryžiaus žemyn,; žalią mygtuką su brūkšneliu, jei norite nutolinti; arba žalių rodyklių gretimoms žemėlapius.


METAR-TAF: